createdAt,value
2022-08-11T00:01:28.951Z,17.89
2022-08-11T00:04:02.837Z,17.85
2022-08-11T00:06:31.167Z,17.80
2022-08-11T00:08:59.598Z,17.78
2022-08-11T00:11:46.232Z,17.75
2022-08-11T00:14:23.003Z,17.70
2022-08-11T00:17:01.967Z,17.70
2022-08-11T00:20:11.809Z,17.68
2022-08-11T00:22:24.432Z,17.65
2022-08-11T00:24:55.968Z,17.64
2022-08-11T00:27:36.837Z,17.64
2022-08-11T00:30:09.140Z,17.61
2022-08-11T00:32:38.952Z,17.56
2022-08-11T00:35:54.047Z,17.54
2022-08-11T00:37:57.247Z,17.50
2022-08-11T00:40:45.811Z,17.53
2022-08-11T00:43:23.979Z,17.52
2022-08-11T00:46:12.294Z,17.49
2022-08-11T00:48:49.471Z,17.47
2022-08-11T00:52:03.887Z,17.45
2022-08-11T00:54:54.314Z,17.42
2022-08-11T00:57:37.483Z,17.42
2022-08-11T01:00:11.120Z,17.40
2022-08-11T01:03:03.065Z,17.38
2022-08-11T01:05:46.233Z,17.38
2022-08-11T01:08:41.153Z,17.32
2022-08-11T01:11:23.731Z,17.30
2022-08-11T01:14:33.688Z,17.31
2022-08-11T01:17:23.095Z,17.28
2022-08-11T01:20:46.927Z,17.26
2022-08-11T01:23:08.207Z,17.21
2022-08-11T01:26:18.195Z,17.23
2022-08-11T01:29:06.498Z,17.16
2022-08-11T01:32:11.566Z,17.10
2022-08-11T01:35:15.948Z,17.07
2022-08-11T01:37:49.416Z,17.05
2022-08-11T01:40:47.338Z,17.06
2022-08-11T01:44:14.153Z,17.05
2022-08-11T01:46:50.654Z,16.99
2022-08-11T01:50:08.163Z,17.02
2022-08-11T01:52:40.003Z,16.94
2022-08-11T01:55:24.183Z,16.92
2022-08-11T01:58:05.652Z,16.87
2022-08-11T02:00:46.614Z,16.80
2022-08-11T02:03:28.853Z,16.70
2022-08-11T02:06:30.591Z,16.81
2022-08-11T02:08:57.666Z,16.79
2022-08-11T02:11:35.113Z,16.77
2022-08-11T02:14:12.327Z,16.79
2022-08-11T02:16:55.800Z,16.78
2022-08-11T02:19:45.379Z,16.74
2022-08-11T02:22:34.839Z,16.76
2022-08-11T02:25:07.868Z,16.75
2022-08-11T02:27:53.237Z,16.73
2022-08-11T02:30:25.579Z,16.72
2022-08-11T02:33:27.664Z,16.76
2022-08-11T02:36:15.197Z,16.78
2022-08-11T02:39:00.537Z,16.81
2022-08-11T02:42:33.455Z,16.86
2022-08-11T02:45:40.694Z,16.87
2022-08-11T02:48:41.171Z,16.91
2022-08-11T02:51:21.924Z,16.92
2022-08-11T02:54:05.908Z,16.95
2022-08-11T02:56:52.378Z,16.99
2022-08-11T02:59:47.246Z,16.98
2022-08-11T03:02:27.955Z,17.00
2022-08-11T03:05:14.702Z,17.06
2022-08-11T03:08:11.055Z,17.07
2022-08-11T03:11:15.335Z,17.14
2022-08-11T03:14:08.389Z,17.17
2022-08-11T03:16:46.607Z,17.35
2022-08-11T03:19:32.990Z,17.46
2022-08-11T03:22:22.215Z,17.56
2022-08-11T03:25:18.523Z,17.62
2022-08-11T03:28:16.895Z,17.72
2022-08-11T03:30:52.993Z,17.85
2022-08-11T03:33:49.868Z,17.85
2022-08-11T03:37:15.731Z,17.76
2022-08-11T03:39:57.545Z,17.68
2022-08-11T03:42:42.623Z,17.63
2022-08-11T03:45:31.598Z,17.58
2022-08-11T03:48:22.198Z,17.60
2022-08-11T03:51:22.612Z,17.59
2022-08-11T03:54:01.469Z,17.59
2022-08-11T03:56:37.569Z,17.62
2022-08-11T03:59:22.967Z,17.63
2022-08-11T04:01:53.348Z,17.61
2022-08-11T04:04:57.652Z,17.66
2022-08-11T04:07:46.102Z,17.69
2022-08-11T04:10:22.188Z,17.71
2022-08-11T04:13:07.838Z,17.75
2022-08-11T04:16:11.886Z,17.78
2022-08-11T04:19:13.647Z,17.83
2022-08-11T04:21:52.665Z,17.88
2022-08-11T04:24:39.729Z,17.91
2022-08-11T04:27:36.761Z,18.00
2022-08-11T04:30:58.917Z,18.07
2022-08-11T04:33:49.331Z,18.17
2022-08-11T04:37:11.713Z,18.23
2022-08-11T04:40:00.201Z,18.32
2022-08-11T04:43:07.715Z,18.46
2022-08-11T04:45:51.638Z,18.76
2022-08-11T04:49:08.551Z,20.75
2022-08-11T04:52:37.434Z,22.68
2022-08-11T04:55:45.731Z,24.39
2022-08-11T04:59:00.748Z,25.61
2022-08-11T05:02:17.619Z,26.91
2022-08-11T05:05:34.036Z,27.78
2022-08-11T05:08:25.226Z,28.41
2022-08-11T05:11:09.698Z,29.15
2022-08-11T05:14:11.482Z,29.61
2022-08-11T05:17:12.532Z,30.17
2022-08-11T05:20:04.174Z,30.70
2022-08-11T05:22:50.011Z,31.10
2022-08-11T05:26:45.072Z,31.47
2022-08-11T05:29:00.612Z,32.10
2022-08-11T05:32:16.124Z,32.68
2022-08-11T05:34:51.364Z,33.10
2022-08-11T05:38:04.521Z,33.47
2022-08-11T05:40:53.103Z,33.61
2022-08-11T05:44:20.261Z,33.94
2022-08-11T05:46:47.603Z,33.97
2022-08-11T05:49:34.393Z,34.31
2022-08-11T05:52:31.669Z,34.47
2022-08-11T05:55:25.358Z,34.68
2022-08-11T05:58:02.847Z,35.01
2022-08-11T06:00:31.002Z,35.14
2022-08-11T06:03:01.436Z,35.16
2022-08-11T06:05:38.515Z,35.59
2022-08-11T06:08:13.026Z,36.02
2022-08-11T06:10:44.182Z,36.30
2022-08-11T06:13:16.422Z,36.33
2022-08-11T06:15:49.285Z,36.79
2022-08-11T06:18:17.458Z,36.89
2022-08-11T06:20:48.615Z,37.08
2022-08-11T06:23:19.628Z,37.38
2022-08-11T06:25:47.964Z,37.74
2022-08-11T06:28:20.772Z,38.03
2022-08-11T06:30:49.267Z,37.78
2022-08-11T06:33:21.604Z,37.90
2022-08-11T06:35:52.378Z,38.09
2022-08-11T06:38:36.963Z,38.21
2022-08-11T06:41:30.538Z,38.41
2022-08-11T06:44:06.123Z,38.33
2022-08-11T06:46:39.189Z,38.46
2022-08-11T06:49:32.568Z,38.65
2022-08-11T06:52:04.739Z,38.62
2022-08-11T06:54:41.522Z,38.97
2022-08-11T06:57:32.558Z,38.58
2022-08-11T07:00:28.212Z,38.39
2022-08-11T07:03:01.066Z,38.91
2022-08-11T07:05:48.395Z,39.12
2022-08-11T07:08:44.852Z,39.68
2022-08-11T07:11:48.467Z,39.89
2022-08-11T07:14:41.762Z,40.02
2022-08-11T07:17:15.757Z,39.98
2022-08-11T07:20:04.897Z,40.61
2022-08-11T07:22:52.171Z,40.40
2022-08-11T07:25:38.528Z,40.95
2022-08-11T07:28:30.257Z,41.27
2022-08-11T07:31:05.063Z,41.47
2022-08-11T07:34:07.300Z,41.81
2022-08-11T07:36:30.629Z,41.74
2022-08-11T07:38:58.066Z,42.14
2022-08-11T07:41:28.723Z,42.29
2022-08-11T07:44:09.156Z,41.27
2022-08-11T07:47:00.763Z,40.92
2022-08-11T07:49:50.081Z,41.55
2022-08-11T07:52:27.126Z,41.83
2022-08-11T07:54:56.754Z,42.22
2022-08-11T07:58:14.648Z,42.71
2022-08-11T08:01:10.183Z,42.62
2022-08-11T08:04:09.186Z,43.41
2022-08-11T08:06:56.565Z,42.93
2022-08-11T08:09:43.588Z,43.53
2022-08-11T08:12:31.264Z,43.91
2022-08-11T08:15:17.535Z,43.85
2022-08-11T08:18:08.949Z,43.36
2022-08-11T08:20:50.276Z,43.70
2022-08-11T08:23:33.581Z,43.42
2022-08-11T08:26:30.178Z,43.89
2022-08-11T08:29:20.003Z,43.93
2022-08-11T08:31:49.500Z,44.08
2022-08-11T08:34:17.313Z,43.18
2022-08-11T08:36:50.440Z,43.78
2022-08-11T08:39:22.526Z,44.23
2022-08-11T08:41:53.521Z,44.67
2022-08-11T08:44:40.804Z,44.89
2022-08-11T08:47:14.257Z,45.27
2022-08-11T08:49:49.596Z,44.22
2022-08-11T08:52:26.296Z,44.14
2022-08-11T08:55:04.752Z,42.20
2022-08-11T08:57:39.499Z,39.89
2022-08-11T09:00:12.639Z,41.12
2022-08-11T09:02:41.809Z,40.99
2022-08-11T09:05:10.491Z,42.40
2022-08-11T09:07:40.446Z,43.29
2022-08-11T09:10:11.946Z,43.66
2022-08-11T09:12:42.899Z,44.05
2022-08-11T09:15:12.621Z,44.47
2022-08-11T09:17:41.777Z,44.94
2022-08-11T09:20:15.025Z,45.13
2022-08-11T09:24:02.015Z,45.06
2022-08-11T09:26:14.026Z,45.13
2022-08-11T09:28:44.209Z,45.26
2022-08-11T09:31:13.573Z,45.03
2022-08-11T09:33:43.057Z,41.93
2022-08-11T09:36:30.858Z,40.04
2022-08-11T09:39:18.417Z,40.21
2022-08-11T09:42:00.489Z,41.62
2022-08-11T09:44:49.817Z,42.18
2022-08-11T09:47:26.579Z,43.00
2022-08-11T09:50:02.379Z,41.26
2022-08-11T09:52:37.985Z,39.86
2022-08-11T09:55:11.458Z,38.87
2022-08-11T09:58:05.392Z,39.76
2022-08-11T10:00:37.725Z,41.12
2022-08-11T10:03:09.951Z,42.25
2022-08-11T10:05:56.706Z,42.46
2022-08-11T10:08:28.816Z,42.71
2022-08-11T10:10:57.047Z,42.28
2022-08-11T10:14:30.902Z,42.41
2022-08-11T10:16:28.040Z,39.90
2022-08-11T10:18:55.983Z,38.31
2022-08-11T10:21:44.148Z,36.70
2022-08-11T10:24:31.246Z,35.80
2022-08-11T10:27:00.733Z,34.95
2022-08-11T10:29:52.265Z,34.59
2022-08-11T10:32:57.329Z,35.10
2022-08-11T10:35:26.630Z,37.40
2022-08-11T10:38:07.729Z,38.12
2022-08-11T10:40:41.337Z,39.88
2022-08-11T10:43:59.303Z,40.88
2022-08-11T10:46:29.797Z,41.23
2022-08-11T10:48:59.320Z,41.20
2022-08-11T10:51:50.698Z,40.84
2022-08-11T10:54:40.666Z,42.52
2022-08-11T10:57:27.814Z,42.62
2022-08-11T10:59:57.020Z,43.23
2022-08-11T11:02:27.450Z,43.24
2022-08-11T11:05:21.678Z,43.71
2022-08-11T11:08:32.513Z,43.14
2022-08-11T11:11:02.280Z,43.52
2022-08-11T11:13:53.322Z,43.44
2022-08-11T11:16:43.778Z,43.28
2022-08-11T11:19:12.269Z,43.08
2022-08-11T11:21:39.922Z,43.25
2022-08-11T11:24:16.949Z,43.50
2022-08-11T11:26:59.086Z,43.47
2022-08-11T11:29:40.971Z,43.58
2022-08-11T11:32:17.053Z,43.12
2022-08-11T11:35:06.044Z,42.73
2022-08-11T11:37:35.766Z,42.75
2022-08-11T11:40:13.465Z,42.97
2022-08-11T11:42:42.716Z,43.01
2022-08-11T11:45:22.623Z,42.63
2022-08-11T11:47:54.772Z,42.17
2022-08-11T11:50:36.883Z,41.30
2022-08-11T11:53:11.814Z,40.11
2022-08-11T11:55:38.925Z,38.99
2022-08-11T11:58:25.503Z,37.95
2022-08-11T12:01:13.052Z,36.75
2022-08-11T12:03:41.049Z,35.86
2022-08-11T12:06:14.400Z,35.10
2022-08-11T12:08:43.606Z,34.27
2022-08-11T12:11:31.255Z,33.62
2022-08-11T12:14:02.244Z,33.00
2022-08-11T12:16:34.851Z,32.52
2022-08-11T12:19:08.730Z,32.14
2022-08-11T12:21:37.489Z,31.75
2022-08-11T12:24:29.229Z,31.33
2022-08-11T12:27:17.753Z,30.93
2022-08-11T12:30:06.022Z,30.56
2022-08-11T12:32:36.470Z,30.36
2022-08-11T12:35:05.527Z,30.19
2022-08-11T12:37:51.921Z,30.05
2022-08-11T12:41:13.732Z,29.95
2022-08-11T12:43:56.491Z,29.70
2022-08-11T12:46:32.008Z,29.59
2022-08-11T12:49:23.054Z,29.47
2022-08-11T12:52:06.725Z,29.39
2022-08-11T12:54:52.217Z,29.22
2022-08-11T12:57:44.101Z,29.17
2022-08-11T13:00:30.266Z,28.84
2022-08-11T13:03:15.984Z,28.83
2022-08-11T13:05:45.063Z,28.65
2022-08-11T13:08:15.427Z,28.50
2022-08-11T13:11:03.113Z,28.17
2022-08-11T13:13:52.869Z,28.38
2022-08-11T13:16:21.624Z,28.43
2022-08-11T13:18:50.314Z,28.42
2022-08-11T13:21:19.983Z,28.32
2022-08-11T13:24:00.242Z,28.41
2022-08-11T13:26:47.709Z,28.42
2022-08-11T13:29:26.556Z,28.39
2022-08-11T13:31:56.707Z,28.35
2022-08-11T13:34:27.040Z,28.36
2022-08-11T13:37:01.226Z,28.41
2022-08-11T13:39:31.061Z,28.34
2022-08-11T13:42:00.409Z,28.36
2022-08-11T13:44:30.298Z,28.33
2022-08-11T13:47:04.386Z,28.24
2022-08-11T13:49:35.070Z,28.23
2022-08-11T13:52:03.072Z,27.88
2022-08-11T13:54:38.451Z,27.95
2022-08-11T13:57:13.655Z,27.92
2022-08-11T14:00:12.241Z,27.87
2022-08-11T14:02:51.018Z,27.76
2022-08-11T14:05:23.033Z,27.64
2022-08-11T14:07:53.134Z,27.62
2022-08-11T14:10:25.027Z,27.56
2022-08-11T14:13:21.414Z,27.52
2022-08-11T14:15:52.281Z,27.48
2022-08-11T14:18:20.922Z,27.34
2022-08-11T14:21:12.717Z,27.32
2022-08-11T14:23:42.076Z,27.30
2022-08-11T14:26:31.857Z,27.28
2022-08-11T14:29:02.894Z,27.22
2022-08-11T14:31:32.221Z,27.20
2022-08-11T14:34:04.879Z,27.17
2022-08-11T14:36:36.192Z,27.16
2022-08-11T14:39:08.605Z,27.29
2022-08-11T14:42:10.178Z,27.27
2022-08-11T14:45:07.894Z,27.04
2022-08-11T14:47:38.067Z,27.01
2022-08-11T14:50:11.800Z,26.90
2022-08-11T14:53:11.293Z,26.87
2022-08-11T14:56:03.402Z,26.80
2022-08-11T14:58:34.015Z,26.76
2022-08-11T15:01:03.609Z,26.73
2022-08-11T15:03:33.796Z,26.65
2022-08-11T15:06:05.242Z,26.64
2022-08-11T15:08:54.502Z,26.60
2022-08-11T15:11:43.786Z,26.55
2022-08-11T15:14:12.673Z,26.50
2022-08-11T15:17:02.630Z,26.44
2022-08-11T15:19:40.569Z,26.35
2022-08-11T15:22:28.993Z,26.27
2022-08-11T15:24:58.894Z,26.22
2022-08-11T15:27:48.391Z,26.16
2022-08-11T15:30:34.988Z,26.09
2022-08-11T15:33:26.562Z,26.02
2022-08-11T15:36:14.523Z,25.96
2022-08-11T15:38:55.150Z,25.91
2022-08-11T15:41:54.628Z,25.86
2022-08-11T15:45:02.801Z,25.78
2022-08-11T15:47:42.058Z,25.75
2022-08-11T15:50:15.429Z,25.70
2022-08-11T15:53:07.899Z,25.61
2022-08-11T15:55:37.826Z,25.55
2022-08-11T15:58:27.934Z,25.46
2022-08-11T16:01:15.661Z,25.42
2022-08-11T16:04:13.328Z,25.33
2022-08-11T16:07:11.848Z,25.24
2022-08-11T16:09:54.051Z,25.15
2022-08-11T16:12:28.643Z,25.08
2022-08-11T16:15:20.448Z,25.02
2022-08-11T16:17:54.176Z,24.96
2022-08-11T16:20:24.953Z,24.88
2022-08-11T16:23:01.902Z,24.84
2022-08-11T16:27:02.537Z,24.76
2022-08-11T16:28:22.074Z,24.70
2022-08-11T16:30:50.309Z,24.65
2022-08-11T16:33:48.360Z,24.59
2022-08-11T16:36:29.946Z,24.52
2022-08-11T16:38:59.280Z,24.40
2022-08-11T16:41:49.218Z,24.36
2022-08-11T16:44:38.302Z,24.28
2022-08-11T16:47:12.158Z,24.20
2022-08-11T16:49:47.157Z,24.11
2022-08-11T16:52:22.095Z,24.04
2022-08-11T16:54:49.408Z,23.94
2022-08-11T16:57:39.532Z,23.93
2022-08-11T17:00:12.616Z,23.87
2022-08-11T17:03:04.932Z,23.80
2022-08-11T17:05:53.764Z,23.73
2022-08-11T17:08:57.285Z,23.67
2022-08-11T17:11:49.824Z,23.61
2022-08-11T17:14:35.063Z,23.56
2022-08-11T17:17:17.059Z,23.49
2022-08-11T17:20:41.398Z,23.42
2022-08-11T17:23:18.794Z,23.37
2022-08-11T17:26:04.014Z,23.26
2022-08-11T17:28:33.282Z,23.24
2022-08-11T17:31:22.525Z,23.19
2022-08-11T17:34:10.694Z,23.11
2022-08-11T17:36:44.603Z,23.09
2022-08-11T17:39:14.257Z,23.05
2022-08-11T17:42:01.978Z,23.01
2022-08-11T17:44:50.684Z,22.95
2022-08-11T17:47:37.775Z,22.88
2022-08-11T17:50:09.273Z,22.83
2022-08-11T17:53:04.856Z,22.79
2022-08-11T17:55:53.514Z,22.72
2022-08-11T17:58:51.354Z,22.68
2022-08-11T18:01:19.930Z,22.63
2022-08-11T18:03:56.347Z,22.61
2022-08-11T18:06:34.265Z,22.58
2022-08-11T18:09:30.104Z,22.53
2022-08-11T18:12:16.910Z,22.48
2022-08-11T18:15:10.812Z,22.45
2022-08-11T18:17:58.979Z,22.42
2022-08-11T18:20:45.653Z,22.38
2022-08-11T18:23:40.078Z,22.34
2022-08-11T18:26:39.313Z,22.30
2022-08-11T18:29:27.245Z,22.25
2022-08-11T18:32:21.192Z,22.21
2022-08-11T18:35:10.865Z,22.15
2022-08-11T18:38:05.807Z,22.14
2022-08-11T18:40:54.249Z,22.09
2022-08-11T18:43:43.071Z,22.05
2022-08-11T18:46:31.642Z,22.02
2022-08-11T18:49:22.678Z,22.01
2022-08-11T18:52:11.315Z,21.99
2022-08-11T18:55:00.259Z,21.97
2022-08-11T18:57:49.629Z,21.91
2022-08-11T19:00:42.436Z,21.88
2022-08-11T19:03:31.440Z,21.84
2022-08-11T19:06:38.778Z,21.79
2022-08-11T19:09:31.048Z,21.76
2022-08-11T19:12:19.174Z,21.70
2022-08-11T19:15:07.764Z,21.66
2022-08-11T19:17:57.351Z,21.60
2022-08-11T19:20:46.387Z,21.56
2022-08-11T19:23:37.194Z,21.48
2022-08-11T19:26:24.916Z,21.43
2022-08-11T19:30:07.517Z,21.37
2022-08-11T19:32:18.211Z,21.29
2022-08-11T19:35:04.844Z,21.21
2022-08-11T19:37:51.753Z,21.13
2022-08-11T19:40:38.715Z,21.06
2022-08-11T19:43:26.506Z,21.01
2022-08-11T19:46:15.119Z,20.93
2022-08-11T19:49:03.280Z,20.91
2022-08-11T19:51:53.866Z,20.85
2022-08-11T19:54:47.537Z,20.83
2022-08-11T19:57:39.717Z,20.79
2022-08-11T20:00:30.567Z,20.73
2022-08-11T20:03:18.920Z,20.64
2022-08-11T20:06:06.164Z,20.65
2022-08-11T20:08:58.355Z,20.60
2022-08-11T20:11:48.619Z,20.55
2022-08-11T20:14:36.684Z,20.50
2022-08-11T20:17:24.434Z,20.47
2022-08-11T20:20:10.694Z,20.42
2022-08-11T20:22:57.286Z,20.36
2022-08-11T20:25:43.462Z,20.33
2022-08-11T20:28:31.968Z,20.29
2022-08-11T20:31:17.606Z,20.24
2022-08-11T20:34:04.479Z,20.22
2022-08-11T20:36:54.920Z,20.17
2022-08-11T20:39:42.969Z,20.16
2022-08-11T20:42:39.971Z,20.10
2022-08-11T20:45:27.017Z,20.06
2022-08-11T20:48:17.394Z,20.03
2022-08-11T20:51:06.492Z,20.00
2022-08-11T20:53:59.267Z,19.94
2022-08-11T20:56:53.698Z,19.92
2022-08-11T20:59:56.683Z,19.86
2022-08-11T21:02:45.178Z,19.82
2022-08-11T21:08:47.369Z,19.77
2022-08-11T21:11:34.422Z,19.73
2022-08-11T21:14:21.857Z,19.69
2022-08-11T21:17:26.803Z,19.63
2022-08-11T21:20:21.729Z,19.61
2022-08-11T21:23:23.835Z,19.58
2022-08-11T21:26:26.554Z,19.55
2022-08-11T21:29:14.572Z,19.50
2022-08-11T21:32:01.702Z,19.43
2022-08-11T21:34:49.783Z,19.42
2022-08-11T21:37:38.023Z,19.37
2022-08-11T21:40:25.681Z,19.32
2022-08-11T21:43:12.247Z,19.29
2022-08-11T21:45:59.859Z,19.24
2022-08-11T21:48:48.317Z,19.22
2022-08-11T21:51:33.829Z,19.17
2022-08-11T21:54:20.344Z,19.12
2022-08-11T21:57:06.976Z,19.07
2022-08-11T22:00:11.514Z,19.07
2022-08-11T22:02:58.057Z,19.04
2022-08-11T22:05:45.713Z,19.00
2022-08-11T22:08:31.908Z,18.92
2022-08-11T22:11:32.492Z,18.92
2022-08-11T22:14:23.352Z,18.90
2022-08-11T22:17:09.962Z,18.85
2022-08-11T22:19:56.289Z,18.83
2022-08-11T22:22:52.160Z,18.83
2022-08-11T22:25:51.309Z,18.81
2022-08-11T22:28:40.405Z,18.76
2022-08-11T22:31:27.332Z,18.79
2022-08-11T22:34:13.323Z,18.79
2022-08-11T22:37:01.681Z,18.76
2022-08-11T22:40:01.994Z,18.74
2022-08-11T22:42:51.693Z,18.73
2022-08-11T22:45:38.877Z,18.71
2022-08-11T22:48:26.499Z,18.72
2022-08-11T22:51:13.639Z,18.67
2022-08-11T22:54:00.541Z,18.70
2022-08-11T22:56:48.166Z,18.69
2022-08-11T22:59:35.842Z,18.69
2022-08-11T23:02:23.844Z,18.68
2022-08-11T23:05:10.893Z,18.66
2022-08-11T23:07:57.480Z,18.65
2022-08-11T23:10:44.190Z,18.63
2022-08-11T23:13:29.960Z,18.61
2022-08-11T23:16:16.699Z,18.61
2022-08-11T23:19:02.385Z,18.55
2022-08-11T23:21:49.703Z,18.55
2022-08-11T23:24:36.867Z,18.54
2022-08-11T23:27:24.446Z,18.50
2022-08-11T23:30:13.537Z,18.47
2022-08-11T23:33:03.397Z,18.42
2022-08-11T23:35:56.525Z,18.43
2022-08-11T23:38:42.587Z,18.36
2022-08-11T23:41:29.171Z,18.34
2022-08-11T23:44:15.259Z,18.30
2022-08-11T23:47:02.427Z,18.27
2022-08-11T23:49:48.890Z,18.24
2022-08-11T23:52:35.605Z,18.24
2022-08-11T23:55:21.669Z,18.17
2022-08-11T23:58:07.084Z,18.14
